createdAt,value
2019-02-16T00:01:54.211Z,9.00
2019-02-16T00:04:21.659Z,9.13
2019-02-16T00:06:49.110Z,10.10
2019-02-16T00:09:16.555Z,10.00
2019-02-16T00:11:43.993Z,9.53
2019-02-16T00:14:11.423Z,9.10
2019-02-16T00:16:38.873Z,9.03
2019-02-16T00:19:06.341Z,9.87
2019-02-16T00:21:33.803Z,8.90
2019-02-16T00:24:01.215Z,9.70
2019-02-16T00:26:28.662Z,9.93
2019-02-16T00:28:56.117Z,9.87
2019-02-16T00:31:23.530Z,9.70
2019-02-16T00:33:50.951Z,9.70
2019-02-16T00:36:18.383Z,9.57
2019-02-16T00:38:45.790Z,9.57
2019-02-16T00:41:13.221Z,9.37
2019-02-16T00:43:40.629Z,9.83
2019-02-16T00:46:08.098Z,9.03
2019-02-16T00:48:35.503Z,9.63
2019-02-16T00:51:02.936Z,9.43
2019-02-16T00:53:30.333Z,9.67
2019-02-16T00:55:57.751Z,10.60
2019-02-16T00:58:25.202Z,10.23
2019-02-16T01:00:52.646Z,9.67
2019-02-16T01:03:20.079Z,10.00
2019-02-16T01:05:47.487Z,9.83
2019-02-16T01:08:14.921Z,9.53
2019-02-16T01:10:42.326Z,9.97
2019-02-16T01:13:09.752Z,10.57
2019-02-16T01:15:37.171Z,10.20
2019-02-16T01:18:04.637Z,9.50
2019-02-16T01:20:32.083Z,10.13
2019-02-16T01:22:59.579Z,9.47
2019-02-16T01:25:27.031Z,10.00
2019-02-16T01:27:54.443Z,10.13
2019-02-16T01:30:21.885Z,9.90
2019-02-16T01:32:49.390Z,10.23
2019-02-16T01:35:16.889Z,10.03
2019-02-16T01:37:44.346Z,9.83
2019-02-16T01:40:11.821Z,9.97
2019-02-16T01:42:39.285Z,10.03
2019-02-16T01:45:06.788Z,10.47
2019-02-16T01:47:34.199Z,10.73
2019-02-16T01:50:01.638Z,11.00
2019-02-16T01:52:29.106Z,10.80
2019-02-16T01:54:56.587Z,11.47
2019-02-16T01:57:24.137Z,11.50
2019-02-16T01:59:51.553Z,11.50
2019-02-16T02:02:19.023Z,11.43
2019-02-16T02:04:46.518Z,11.50
2019-02-16T02:07:13.995Z,11.17
2019-02-16T02:09:41.481Z,9.67
2019-02-16T02:12:08.972Z,9.63
2019-02-16T02:14:36.427Z,10.03
2019-02-16T02:17:03.913Z,10.13
2019-02-16T02:19:31.405Z,10.53
2019-02-16T02:21:58.867Z,9.83
2019-02-16T02:24:26.365Z,10.70
2019-02-16T02:26:53.836Z,10.87
2019-02-16T02:29:21.306Z,11.00
2019-02-16T02:31:48.806Z,9.50
2019-02-16T02:34:16.286Z,9.90
2019-02-16T02:36:43.751Z,11.07
2019-02-16T02:39:11.250Z,9.50
2019-02-16T02:41:38.734Z,11.00
2019-02-16T02:44:06.200Z,10.13
2019-02-16T02:46:33.688Z,10.00
2019-02-16T02:49:01.154Z,10.17
2019-02-16T02:51:28.643Z,10.40
2019-02-16T02:53:56.113Z,9.63
2019-02-16T02:56:23.616Z,10.50
2019-02-16T02:58:51.079Z,10.43
2019-02-16T03:01:18.568Z,10.40
2019-02-16T03:03:46.048Z,10.57
2019-02-16T03:06:13.520Z,10.53
2019-02-16T03:08:54.340Z,11.88
2019-02-16T03:11:21.835Z,9.33
2019-02-16T03:13:49.301Z,10.23
2019-02-16T03:16:16.770Z,10.57
2019-02-16T03:18:44.257Z,11.20
2019-02-16T03:21:11.744Z,10.63
2019-02-16T03:23:39.230Z,9.87
2019-02-16T03:26:06.713Z,9.93
2019-02-16T03:28:43.103Z,10.27
2019-02-16T03:31:35.108Z,10.30
2019-02-16T03:34:17.263Z,10.10
2019-02-16T03:37:06.075Z,10.77
2019-02-16T03:39:33.576Z,10.50
2019-02-16T03:42:01.034Z,10.40
2019-02-16T03:44:28.530Z,10.30
2019-02-16T03:46:56.076Z,10.63
2019-02-16T03:49:23.541Z,10.90
2019-02-16T03:51:51.038Z,10.63
2019-02-16T03:54:18.514Z,10.10
2019-02-16T03:56:45.997Z,9.90
2019-02-16T03:59:13.491Z,10.13
2019-02-16T04:01:40.973Z,10.07
2019-02-16T04:04:08.483Z,9.73
2019-02-16T04:06:35.948Z,10.03
2019-02-16T04:09:03.446Z,9.83
2019-02-16T04:11:30.913Z,9.63
2019-02-16T04:13:58.385Z,10.70
2019-02-16T04:16:25.854Z,11.23
2019-02-16T04:18:53.333Z,9.90
2019-02-16T04:21:20.812Z,9.87
2019-02-16T04:23:48.282Z,11.20
2019-02-16T04:26:15.742Z,9.27
2019-02-16T04:28:43.191Z,10.67
2019-02-16T04:31:10.643Z,10.07
2019-02-16T04:33:38.074Z,10.70
2019-02-16T04:36:05.510Z,10.07
2019-02-16T04:38:32.932Z,11.20
2019-02-16T04:41:00.380Z,11.33
2019-02-16T04:43:27.803Z,11.10
2019-02-16T04:45:55.246Z,10.47
2019-02-16T04:48:22.664Z,10.10
2019-02-16T04:50:50.099Z,11.93
2019-02-16T04:53:17.552Z,11.80
2019-02-16T04:55:44.991Z,11.40
2019-02-16T04:58:12.409Z,11.17
2019-02-16T05:00:39.824Z,12.90
2019-02-16T05:03:07.282Z,11.90
2019-02-16T05:05:34.704Z,11.93
2019-02-16T05:08:02.152Z,11.13
2019-02-16T05:10:29.568Z,10.80
2019-02-16T05:12:57.001Z,10.77
2019-02-16T05:15:24.432Z,11.93
2019-02-16T05:17:51.874Z,12.07
2019-02-16T05:20:19.281Z,11.60
2019-02-16T05:22:46.719Z,10.17
2019-02-16T05:25:14.138Z,10.53
2019-02-16T05:27:41.599Z,12.47
2019-02-16T05:30:09.011Z,11.50
2019-02-16T05:32:36.427Z,12.13
2019-02-16T05:35:03.882Z,10.77
2019-02-16T05:37:31.304Z,10.33
2019-02-16T05:39:58.837Z,12.10
2019-02-16T05:42:26.249Z,11.93
2019-02-16T05:44:53.684Z,11.17
2019-02-16T05:47:21.116Z,10.60
2019-02-16T05:49:48.547Z,10.93
2019-02-16T05:52:15.981Z,11.97
2019-02-16T05:54:43.406Z,12.10
2019-02-16T05:57:10.817Z,11.43
2019-02-16T05:59:38.251Z,12.03
2019-02-16T06:02:05.684Z,11.77
2019-02-16T06:04:33.098Z,12.03
2019-02-16T06:07:00.544Z,12.33
2019-02-16T06:09:27.980Z,13.27
2019-02-16T06:11:55.450Z,13.13
2019-02-16T06:14:22.869Z,12.17
2019-02-16T06:16:50.316Z,12.83
2019-02-16T06:19:17.729Z,13.47
2019-02-16T06:21:45.155Z,17.63
2019-02-16T06:24:12.630Z,13.73
2019-02-16T06:26:40.076Z,12.87
2019-02-16T06:29:07.495Z,12.37
2019-02-16T06:31:34.928Z,14.00
2019-02-16T06:34:02.363Z,12.90
2019-02-16T06:36:29.802Z,12.47
2019-02-16T06:38:57.222Z,13.23
2019-02-16T06:41:24.664Z,12.47
2019-02-16T06:43:52.106Z,12.70
2019-02-16T06:46:19.523Z,12.63
2019-02-16T06:48:46.959Z,13.67
2019-02-16T06:51:15.007Z,12.97
2019-02-16T06:53:41.870Z,13.50
2019-02-16T06:56:09.290Z,15.33
2019-02-16T06:58:36.734Z,13.50
2019-02-16T07:01:04.151Z,13.27
2019-02-16T07:03:31.589Z,13.27
2019-02-16T07:05:59.037Z,13.30
2019-02-16T07:08:26.448Z,14.33
2019-02-16T07:10:53.909Z,13.13
2019-02-16T07:13:21.333Z,13.60
2019-02-16T07:15:48.777Z,13.50
2019-02-16T07:18:22.186Z,13.80
2019-02-16T07:20:49.645Z,14.33
2019-02-16T07:23:22.464Z,15.00
2019-02-16T07:25:44.528Z,14.60
2019-02-16T07:28:11.960Z,13.37
2019-02-16T07:30:39.393Z,13.43
2019-02-16T07:33:06.840Z,14.53
2019-02-16T07:35:34.279Z,15.27
2019-02-16T07:38:01.717Z,14.13
2019-02-16T07:40:29.138Z,14.50
2019-02-16T07:42:56.561Z,14.97
2019-02-16T07:45:32.768Z,14.67
2019-02-16T07:48:15.174Z,15.27
2019-02-16T07:50:42.586Z,15.60
2019-02-16T07:53:15.651Z,15.53
2019-02-16T07:55:43.067Z,15.27
2019-02-16T07:58:19.214Z,14.50
2019-02-16T08:01:04.553Z,15.27
2019-02-16T08:03:40.795Z,15.57
2019-02-16T08:06:08.239Z,15.77
2019-02-16T08:08:47.469Z,15.33
2019-02-16T08:11:14.905Z,15.33
2019-02-16T08:13:51.671Z,14.70
2019-02-16T08:16:33.998Z,15.03
2019-02-16T08:19:19.687Z,14.53
2019-02-16T08:22:05.447Z,14.40
2019-02-16T08:24:35.586Z,14.57
2019-02-16T08:27:03.004Z,14.70
2019-02-16T08:29:30.453Z,14.67
2019-02-16T08:32:00.525Z,15.03
2019-02-16T08:34:30.680Z,15.37
2019-02-16T08:36:58.139Z,14.40
2019-02-16T08:39:40.716Z,14.17
2019-02-16T08:42:10.906Z,14.43
2019-02-16T08:44:41.040Z,14.00
2019-02-16T08:47:26.608Z,14.80
2019-02-16T08:50:00.396Z,15.27
2019-02-16T08:52:33.831Z,15.33
2019-02-16T08:55:07.113Z,15.13
2019-02-16T08:57:46.698Z,14.83
2019-02-16T09:00:14.101Z,15.63
2019-02-16T09:02:44.584Z,14.97
2019-02-16T09:05:12.028Z,15.27
2019-02-16T09:07:39.448Z,15.33
2019-02-16T09:10:15.634Z,15.47
2019-02-16T09:12:45.680Z,15.70
2019-02-16T09:15:13.126Z,15.67
2019-02-16T09:17:40.579Z,16.00
2019-02-16T09:20:10.752Z,16.43
2019-02-16T09:22:38.198Z,15.50
2019-02-16T09:25:05.608Z,15.33
2019-02-16T09:27:33.054Z,15.03
2019-02-16T09:30:06.519Z,16.93
2019-02-16T09:32:33.944Z,15.67
2019-02-16T09:35:07.333Z,16.80
2019-02-16T09:37:34.744Z,16.03
2019-02-16T09:40:20.486Z,14.97
2019-02-16T09:42:56.803Z,15.40
2019-02-16T09:45:36.051Z,15.03
2019-02-16T09:48:09.048Z,16.37
2019-02-16T09:50:42.407Z,16.07
2019-02-16T09:53:09.839Z,16.13
2019-02-16T09:55:42.985Z,15.80
2019-02-16T09:58:16.017Z,16.77
2019-02-16T10:00:49.563Z,16.33
2019-02-16T10:03:16.977Z,16.67
2019-02-16T10:05:53.323Z,17.13
2019-02-16T10:08:26.531Z,15.67
2019-02-16T10:10:56.824Z,16.83
2019-02-16T10:13:42.569Z,17.50
2019-02-16T10:16:12.669Z,16.67
2019-02-16T10:18:49.184Z,16.60
2019-02-16T10:21:34.720Z,15.90
2019-02-16T10:24:07.620Z,17.03
2019-02-16T10:26:53.146Z,15.87
2019-02-16T10:29:26.675Z,16.33
2019-02-16T10:31:53.970Z,16.13
2019-02-16T10:34:36.457Z,16.53
2019-02-16T10:37:15.980Z,15.03
2019-02-16T10:39:55.251Z,17.13
2019-02-16T10:42:22.689Z,16.43
2019-02-16T10:45:05.009Z,16.33
2019-02-16T10:47:32.421Z,16.77
2019-02-16T10:50:02.428Z,16.50
2019-02-16T10:52:38.842Z,17.03
2019-02-16T10:55:06.284Z,17.60
2019-02-16T10:57:42.571Z,18.47
2019-02-16T11:00:10.018Z,17.70
2019-02-16T11:02:37.439Z,17.10
2019-02-16T11:05:07.645Z,17.10
2019-02-16T11:07:35.089Z,18.20
2019-02-16T11:10:02.526Z,18.13
2019-02-16T11:12:32.467Z,18.17
2019-02-16T11:15:17.931Z,16.67
2019-02-16T11:18:00.418Z,17.97
2019-02-16T11:20:27.847Z,16.70
2019-02-16T11:22:57.814Z,16.57
2019-02-16T11:25:37.290Z,16.00
2019-02-16T11:28:10.602Z,15.37
2019-02-16T11:30:40.630Z,15.73
2019-02-16T11:33:10.974Z,14.37
2019-02-16T11:35:41.331Z,14.63
2019-02-16T11:38:17.950Z,15.03
2019-02-16T11:41:00.118Z,15.57
2019-02-16T11:43:36.484Z,15.27
2019-02-16T11:46:06.705Z,14.40
2019-02-16T11:48:34.137Z,15.57
2019-02-16T11:51:19.506Z,15.30
2019-02-16T11:53:46.943Z,16.07
2019-02-16T11:56:19.873Z,15.03
2019-02-16T11:59:05.275Z,14.60
2019-02-16T12:01:44.793Z,14.67
2019-02-16T12:04:14.742Z,13.90
2019-02-16T12:06:44.703Z,14.60
2019-02-16T12:09:12.163Z,14.67
2019-02-16T12:11:48.539Z,14.50
2019-02-16T12:14:25.219Z,15.00
2019-02-16T12:17:01.508Z,14.43
2019-02-16T12:19:44.300Z,14.60
2019-02-16T12:22:14.715Z,14.47
2019-02-16T12:25:02.913Z,13.90
2019-02-16T12:27:15.830Z,15.20
2019-02-16T12:29:43.243Z,14.50
2019-02-16T12:32:16.273Z,14.70
2019-02-16T12:34:43.694Z,13.60
2019-02-16T12:37:13.898Z,13.30
2019-02-16T12:39:43.999Z,13.70
2019-02-16T12:42:26.766Z,12.97
2019-02-16T12:45:02.945Z,13.10
2019-02-16T12:47:45.625Z,14.20
2019-02-16T12:50:31.273Z,13.70
2019-02-16T12:53:16.847Z,14.23
2019-02-16T12:55:44.300Z,13.80
2019-02-16T12:58:11.736Z,13.87
2019-02-16T13:00:45.344Z,12.97
2019-02-16T13:03:27.908Z,12.80
2019-02-16T13:05:55.322Z,12.73
2019-02-16T13:08:25.392Z,12.33
2019-02-16T13:10:58.652Z,13.17
2019-02-16T13:13:38.065Z,12.47
2019-02-16T13:16:14.064Z,13.57
2019-02-16T13:18:44.029Z,11.70
2019-02-16T13:21:23.776Z,11.97
2019-02-16T13:23:51.195Z,10.93
2019-02-16T13:26:21.420Z,11.85
2019-02-16T13:28:54.769Z,11.67
2019-02-16T13:31:31.059Z,12.85
2019-02-16T13:34:16.542Z,11.13
2019-02-16T13:36:53.082Z,12.10
2019-02-16T13:39:26.480Z,12.50
2019-02-16T13:41:56.895Z,11.70
2019-02-16T13:44:24.320Z,11.60
2019-02-16T13:46:51.757Z,10.80
2019-02-16T13:49:25.393Z,11.50
2019-02-16T13:52:01.797Z,10.83
2019-02-16T13:54:31.832Z,11.63
2019-02-16T13:57:17.501Z,11.87
2019-02-16T13:59:54.187Z,11.63
2019-02-16T14:02:24.396Z,12.33
2019-02-16T14:04:51.803Z,11.63
2019-02-16T14:07:28.575Z,11.50
2019-02-16T14:09:56.011Z,11.40
2019-02-16T14:12:23.542Z,11.20
2019-02-16T14:14:59.901Z,11.77
2019-02-16T14:17:39.413Z,12.67
2019-02-16T14:20:06.846Z,12.33
2019-02-16T14:22:34.259Z,11.53
2019-02-16T14:25:01.710Z,11.23
2019-02-16T14:27:29.130Z,12.37
2019-02-16T14:29:56.562Z,11.00
2019-02-16T14:32:23.973Z,11.87
2019-02-16T14:34:51.388Z,12.03
2019-02-16T14:37:21.679Z,12.57
2019-02-16T14:39:49.148Z,11.83
2019-02-16T14:42:16.551Z,12.20
2019-02-16T14:44:43.994Z,12.90
2019-02-16T14:47:11.426Z,13.20
2019-02-16T14:49:38.862Z,12.10
2019-02-16T14:52:06.344Z,12.07
2019-02-16T14:54:33.782Z,11.47
2019-02-16T14:57:01.218Z,12.70
2019-02-16T14:59:28.648Z,12.53
2019-02-16T15:01:56.116Z,13.20
2019-02-16T15:04:23.567Z,11.93
2019-02-16T15:06:50.987Z,11.47
2019-02-16T15:09:18.446Z,12.53
2019-02-16T15:11:45.917Z,12.40
2019-02-16T15:14:13.347Z,12.53
2019-02-16T15:16:40.830Z,13.83
2019-02-16T15:19:08.291Z,13.07
2019-02-16T15:21:35.755Z,12.77
2019-02-16T15:24:03.177Z,13.73
2019-02-16T15:26:30.587Z,12.77
2019-02-16T15:28:58.022Z,13.23
2019-02-16T15:31:25.470Z,13.37
2019-02-16T15:33:52.879Z,12.43
2019-02-16T15:36:24.071Z,12.87
2019-02-16T15:38:47.776Z,13.23
2019-02-16T15:41:15.222Z,12.67
2019-02-16T15:43:42.661Z,13.20
2019-02-16T15:46:10.149Z,13.93
2019-02-16T15:48:37.530Z,13.87
2019-02-16T15:51:04.959Z,13.27
2019-02-16T15:53:32.399Z,13.07
2019-02-16T15:55:59.831Z,13.10
2019-02-16T15:58:27.342Z,12.87
2019-02-16T16:00:54.775Z,13.37
2019-02-16T16:03:22.197Z,12.87
2019-02-16T16:05:49.732Z,13.97
2019-02-16T16:08:19.865Z,12.83
2019-02-16T16:10:53.394Z,13.27
2019-02-16T16:13:39.354Z,15.13
2019-02-16T16:16:06.792Z,13.80
2019-02-16T16:18:40.313Z,13.90
2019-02-16T16:21:07.802Z,14.77
2019-02-16T16:23:38.185Z,14.77
2019-02-16T16:26:19.581Z,15.47
2019-02-16T16:29:03.200Z,14.00
2019-02-16T16:31:30.657Z,14.17
2019-02-16T16:34:00.907Z,14.63
2019-02-16T16:36:43.639Z,13.33
2019-02-16T16:39:13.406Z,12.87
2019-02-16T16:41:44.012Z,14.30
2019-02-16T16:44:14.116Z,13.43
2019-02-16T16:47:00.135Z,13.80
2019-02-16T16:49:30.272Z,12.93
2019-02-16T16:51:57.761Z,14.63
2019-02-16T16:54:25.210Z,14.23
2019-02-16T16:57:10.823Z,14.70
2019-02-16T16:59:44.397Z,13.97
2019-02-16T17:02:14.608Z,14.90
2019-02-16T17:04:44.629Z,13.80
2019-02-16T17:07:30.330Z,13.90
2019-02-16T17:10:09.744Z,14.63
2019-02-16T17:12:39.953Z,13.80
2019-02-16T17:15:07.405Z,13.80
2019-02-16T17:17:49.942Z,14.13
2019-02-16T17:20:17.384Z,12.83
2019-02-16T17:22:44.810Z,13.13
2019-02-16T17:25:21.407Z,13.87
2019-02-16T17:28:03.838Z,14.53
2019-02-16T17:30:31.311Z,13.60
2019-02-16T17:33:16.762Z,13.83
2019-02-16T17:35:56.449Z,14.10
2019-02-16T17:38:38.914Z,13.70
2019-02-16T17:41:12.584Z,14.23
2019-02-16T17:43:46.207Z,14.23
2019-02-16T17:46:19.658Z,14.63
2019-02-16T17:48:50.085Z,13.87
2019-02-16T17:51:17.493Z,15.10
2019-02-16T17:53:47.797Z,15.27
2019-02-16T17:56:15.304Z,15.53
2019-02-16T17:58:42.754Z,16.17
2019-02-16T18:01:22.214Z,14.57
2019-02-16T18:03:55.530Z,15.83
2019-02-16T18:06:41.621Z,16.40
2019-02-16T18:09:11.677Z,15.63
2019-02-16T18:11:42.055Z,17.10
2019-02-16T18:14:27.853Z,15.77
2019-02-16T18:17:13.471Z,17.00
2019-02-16T18:19:52.830Z,17.87
2019-02-16T18:22:26.117Z,16.47
2019-02-16T18:24:59.665Z,15.97
2019-02-16T18:27:33.372Z,17.40
2019-02-16T18:30:03.579Z,16.03
2019-02-16T18:32:37.058Z,16.67
2019-02-16T18:35:23.796Z,17.17
2019-02-16T18:37:52.570Z,17.67
2019-02-16T18:40:20.135Z,18.00
2019-02-16T18:42:56.457Z,17.47
2019-02-16T18:45:23.990Z,19.50
2019-02-16T18:47:51.443Z,22.20
2019-02-16T18:50:21.871Z,18.73
2019-02-16T18:52:51.946Z,17.90
2019-02-16T18:55:25.222Z,18.20
2019-02-16T18:57:52.666Z,19.70
2019-02-16T19:00:20.086Z,21.37
2019-02-16T19:02:56.436Z,19.20
2019-02-16T19:05:39.109Z,18.53
2019-02-16T19:08:06.574Z,18.90
2019-02-16T19:10:42.948Z,20.20
2019-02-16T19:13:22.658Z,19.87
2019-02-16T19:15:53.046Z,21.63
2019-02-16T19:18:29.410Z,19.93
2019-02-16T19:21:05.666Z,20.10
2019-02-16T19:23:38.827Z,19.17
2019-02-16T19:26:06.271Z,19.70
2019-02-16T19:28:52.069Z,20.83
2019-02-16T19:31:22.117Z,20.30
2019-02-16T19:33:52.469Z,23.40
2019-02-16T19:36:28.871Z,22.67
2019-02-16T19:38:59.281Z,21.93
2019-02-16T19:41:26.734Z,20.50
2019-02-16T19:44:00.229Z,19.93
2019-02-16T19:46:36.759Z,20.90
2019-02-16T19:49:05.195Z,24.57
2019-02-16T19:51:37.580Z,22.30
2019-02-16T19:54:05.022Z,22.70
2019-02-16T19:56:38.546Z,24.23
2019-02-16T19:59:15.265Z,24.50
2019-02-16T20:01:42.702Z,25.30
2019-02-16T20:04:25.272Z,23.13
2019-02-16T20:07:01.984Z,24.37
2019-02-16T20:09:29.391Z,22.33
2019-02-16T20:11:59.472Z,25.40
2019-02-16T20:14:42.129Z,23.17
2019-02-16T20:17:09.545Z,25.60
2019-02-16T20:19:38.045Z,25.23
2019-02-16T20:22:05.510Z,24.07
2019-02-16T20:24:32.945Z,23.73
2019-02-16T20:27:00.475Z,23.27
2019-02-16T20:29:27.843Z,24.57
2019-02-16T20:32:01.272Z,22.13
2019-02-16T20:34:31.344Z,24.10
2019-02-16T20:36:58.754Z,25.47
2019-02-16T20:39:29.090Z,27.30
2019-02-16T20:42:05.535Z,27.83
2019-02-16T20:44:33.079Z,29.30
2019-02-16T20:47:00.574Z,29.17
2019-02-16T20:49:33.677Z,29.07
2019-02-16T20:52:06.988Z,30.10
2019-02-16T20:54:49.568Z,26.90
2019-02-16T20:57:17.013Z,26.97
2019-02-16T20:59:50.591Z,28.67
2019-02-16T21:02:35.908Z,25.60
2019-02-16T21:05:06.241Z,26.77
2019-02-16T21:07:39.584Z,24.13
2019-02-16T21:10:25.032Z,25.37
2019-02-16T21:12:58.302Z,28.60
2019-02-16T21:15:28.964Z,27.33
2019-02-16T21:18:11.309Z,27.30
2019-02-16T21:20:57.144Z,23.03
2019-02-16T21:23:45.822Z,28.40
2019-02-16T21:26:36.575Z,25.63
2019-02-16T21:28:55.973Z,26.07
2019-02-16T21:31:26.175Z,24.87
2019-02-16T21:34:02.977Z,25.37
2019-02-16T21:36:33.578Z,24.90
2019-02-16T21:39:03.711Z,25.23
2019-02-16T21:41:46.270Z,24.40
2019-02-16T21:44:19.548Z,23.83
2019-02-16T21:46:55.625Z,23.60
2019-02-16T21:49:31.638Z,22.30
2019-02-16T21:52:02.083Z,23.53
2019-02-16T21:54:29.509Z,26.50
2019-02-16T21:57:12.225Z,25.37
2019-02-16T21:59:42.501Z,24.27
2019-02-16T22:02:31.073Z,24.17
2019-02-16T22:05:10.466Z,22.87
2019-02-16T22:07:46.960Z,23.70
2019-02-16T22:10:16.895Z,22.10
2019-02-16T22:13:02.493Z,23.50
2019-02-16T22:15:29.956Z,22.67
2019-02-16T22:17:57.480Z,23.50
2019-02-16T22:20:24.938Z,24.03
2019-02-16T22:22:52.379Z,24.57
2019-02-16T22:25:21.395Z,29.70
2019-02-16T22:27:47.260Z,25.37
2019-02-16T22:30:14.735Z,27.80
2019-02-16T22:32:42.258Z,23.07
2019-02-16T22:35:09.718Z,21.47
2019-02-16T22:37:37.167Z,22.77
2019-02-16T22:40:04.563Z,22.10
2019-02-16T22:42:32.034Z,20.90
2019-02-16T22:44:59.478Z,22.83
2019-02-16T22:47:27.174Z,21.67
2019-02-16T22:49:54.730Z,21.27
2019-02-16T22:52:22.282Z,21.20
2019-02-16T22:54:49.742Z,21.87
2019-02-16T22:57:17.191Z,23.37
2019-02-16T22:59:44.950Z,21.40
2019-02-16T23:02:12.326Z,22.10
2019-02-16T23:04:39.811Z,23.63
2019-02-16T23:07:07.254Z,22.77
2019-02-16T23:09:34.672Z,22.30
2019-02-16T23:12:02.105Z,22.87
2019-02-16T23:14:29.588Z,23.20
2019-02-16T23:16:56.994Z,22.93
2019-02-16T23:19:24.445Z,23.70
2019-02-16T23:21:51.873Z,23.83
2019-02-16T23:24:19.321Z,23.30
2019-02-16T23:26:46.744Z,22.70
2019-02-16T23:29:14.254Z,24.63
2019-02-16T23:31:41.738Z,23.20
2019-02-16T23:34:09.178Z,23.60
2019-02-16T23:36:36.632Z,23.43
2019-02-16T23:39:04.078Z,23.53
2019-02-16T23:41:31.561Z,20.40
2019-02-16T23:43:58.992Z,25.33
2019-02-16T23:46:26.447Z,26.10
2019-02-16T23:48:53.973Z,23.67
2019-02-16T23:51:21.480Z,26.07
2019-02-16T23:53:49.279Z,25.17
2019-02-16T23:56:16.719Z,26.10
2019-02-16T23:58:49.257Z,24.63
